Time;durP1;ratioP1;P1;durP2;ratioP2;P2;SDS_P1;SDS_P2;PMS_P1;PMS_P2;Temp;Humidity;BMP_temperature;BMP_pressure;BME280_temperature;BME280_humidity;BME280_pressure;Samples;Min_cycle;Max_cycle;Signal;HPM_P1;HPM_P2
2021/09/21 00:02:27;;;;;;;23.18;15.28;;;;;;;13.28;100.00;100639.32;1712141;82;21129;-82
2021/09/21 00:04:54;;;;;;;26.90;14.47;;;;;;;13.28;100.00;100640.63;1709846;82;21107;-86
2021/09/21 00:07:23;;;;;;;19.55;14.43;;;;;;;13.31;100.00;100646.91;1807620;78;20940;-83
2021/09/21 00:09:50;;;;;;;19.70;15.25;;;;;;;13.29;100.00;100642.29;1776616;79;20928;-84
2021/09/21 00:12:18;;;;;;;19.65;14.53;;;;;;;13.26;100.00;100639.46;1807733;79;21656;-84
2021/09/21 00:14:47;;;;;;;18.70;16.27;;;;;;;13.24;100.00;100639.61;1739046;82;21615;-82
2021/09/21 00:17:14;;;;;;;22.32;16.42;;;;;;;13.26;100.00;100635.05;1743076;82;22020;-87
2021/09/21 00:19:42;;;;;;;22.52;16.12;;;;;;;13.26;100.00;100636.36;1709551;82;20961;-87
2021/09/21 00:22:09;;;;;;;22.27;17.23;;;;;;;13.25;100.00;100636.03;1807948;78;21042;-85
2021/09/21 00:24:38;;;;;;;20.85;16.95;;;;;;;13.25;100.00;100638.65;1738766;82;21679;-82
2021/09/21 00:27:05;;;;;;;25.12;16.55;;;;;;;13.25;100.00;100639.11;1711790;82;21082;-85
2021/09/21 00:29:32;;;;;;;26.90;17.60;;;;;;;13.27;100.00;100643.73;1709560;82;22250;-81
2021/09/21 00:32:00;;;;;;;23.98;17.23;;;;;;;13.28;100.00;100639.32;1776031;79;21049;-83
2021/09/21 00:34:38;;;;;;;29.82;17.87;;;;;;;13.29;100.00;100633.14;1776294;78;21536;-85
2021/09/21 00:37:08;;;;;;;24.70;16.85;;;;;;;13.28;100.00;100626.25;1807677;79;21041;-84
2021/09/21 00:39:35;;;;;;;21.48;17.00;;;;;;;13.29;100.00;100635.75;1709936;82;21054;-82
2021/09/21 00:42:04;;;;;;;20.97;15.15;;;;;;;13.28;100.00;100638.02;1743043;82;21149;-84
2021/09/21 00:44:31;;;;;;;19.35;15.98;;;;;;;13.27;100.00;100638.51;1709605;82;20985;-82
2021/09/21 00:46:59;;;;;;;19.12;15.50;;;;;;;13.26;100.00;100644.69;1776171;78;20979;-81
2021/09/21 00:49:26;;;;;;;19.50;16.02;;;;;;;13.25;100.00;100643.87;1709549;82;21070;-89
2021/09/21 00:51:57;;;;;;;20.57;16.15;;;;;;;13.25;100.00;100636.03;1743105;82;21478;-85
2021/09/21 00:54:24;;;;;;;21.93;16.42;;;;;;;13.23;100.00;100640.56;1709730;82;21115;-83
2021/09/21 00:56:53;;;;;;;22.50;15.93;;;;;;;13.22;100.00;100641.52;1807684;79;21045;-82
2021/09/21 00:59:21;;;;;;;19.12;15.32;;;;;;;13.22;100.00;100639.39;1709939;82;21570;-84
2021/09/21 01:01:48;;;;;;;25.62;15.70;;;;;;;13.21;100.00;100643.78;1711916;82;21505;-81
2021/09/21 01:04:16;;;;;;;19.57;16.20;;;;;;;13.20;100.00;100642.12;1709937;82;21111;-84
2021/09/21 01:06:43;;;;;;;20.75;16.62;;;;;;;13.21;100.00;100643.78;1776155;79;21121;-88
2021/09/21 01:09:21;;;;;;;20.02;15.78;;;;;;;13.20;100.00;100645.23;1739343;82;21085;-86
2021/09/21 01:11:51;;;;;;;23.05;16.90;;;;;;;13.17;100.00;100647.63;1712964;82;21018;-83
2021/09/21 01:14:20;;;;;;;22.75;18.15;;;;;;;13.17;100.00;100646.33;1709779;82;21067;-85
2021/09/21 01:16:52;;;;;;;23.30;16.67;;;;;;;13.17;100.00;100650.25;1807748;78;21011;-82
2021/09/21 01:19:22;;;;;;;21.35;17.15;;;;;;;13.19;100.00;100654.84;1808108;78;21197;-85
2021/09/21 01:21:50;;;;;;;21.15;17.32;;;;;;;13.19;100.00;100659.26;1775729;79;20927;-88
2021/09/21 01:24:20;;;;;;;23.30;17.05;;;;;;;13.18;100.00;100664.13;1776541;79;21512;-85
2021/09/21 01:26:49;;;;;;;22.52;17.82;;;;;;;13.15;100.00;100666.53;1776043;79;21054;-87
2021/09/21 01:29:16;;;;;;;24.23;19.05;;;;;;;13.14;100.00;100664.88;1807648;79;21537;-82
2021/09/21 01:31:44;;;;;;;26.20;19.05;;;;;;;13.15;100.00;100665.69;1808058;79;21799;-81
2021/09/21 01:34:18;;;;;;;23.80;19.25;;;;;;;13.12;100.00;100661.55;1808332;79;21149;-84
2021/09/21 01:36:46;;;;;;;25.32;19.98;;;;;;;13.12;100.00;100662.05;1710454;82;21339;-84
2021/09/21 01:39:15;;;;;;;28.38;20.57;;;;;;;13.09;100.00;100667.06;1712599;82;21045;-81
2021/09/21 01:41:43;;;;;;;25.15;20.00;;;;;;;13.07;100.00;100665.86;1710465;82;21071;-81
2021/09/21 01:44:11;;;;;;;31.52;20.55;;;;;;;13.07;100.00;100659.83;1776952;79;21770;-83
2021/09/21 01:46:38;;;;;;;27.95;19.73;;;;;;;13.07;100.00;100644.95;1776980;79;21505;-90
2021/09/21 01:49:05;;;;;;;26.23;19.82;;;;;;;13.11;100.00;100650.75;1710128;82;20986;-83
2021/09/21 01:51:37;;;;;;;28.80;19.52;;;;;;;13.12;100.00;100649.80;1743274;82;21533;-87
2021/09/21 01:54:29;;;;;;;31.70;19.60;;;;;;;13.15;100.00;100647.39;1734939;81;20957;-85
2021/09/21 01:59:37;;;;;;;25.75;20.17;;;;;;;13.18;100.00;100642.72;1738866;81;21026;-81
2021/09/21 02:02:05;;;;;;;32.05;20.32;;;;;;;13.20;100.00;100636.89;1743332;82;21121;-84
2021/09/21 02:04:33;;;;;;;39.50;21.05;;;;;;;13.19;100.00;100632.62;1710076;82;21048;-84
2021/09/21 02:07:00;;;;;;;26.65;21.55;;;;;;;13.19;100.00;100636.54;1775968;78;21548;-82
2021/09/21 02:09:29;;;;;;;32.25;22.22;;;;;;;13.22;100.00;100634.98;1807674;79;21414;-83
2021/09/21 02:11:56;;;;;;;28.65;22.02;;;;;;;13.26;100.00;100631.62;1807721;79;21010;-83
2021/09/21 02:14:23;;;;;;;28.35;22.52;;;;;;;13.25;100.00;100622.96;1776181;79;21414;-82
2021/09/21 02:16:54;;;;;;;25.75;21.73;;;;;;;13.28;100.00;100621.02;1709585;82;21054;-82
2021/09/21 02:19:19;;;;;;;25.32;19.70;;;;;;;13.28;100.00;100626.25;1709471;82;21426;-83
2021/09/21 02:21:48;;;;;;;24.20;19.70;;;;;;;13.26;100.00;100636.36;1738963;82;21020;-82
2021/09/21 02:24:22;;;;;;;24.02;18.65;;;;;;;13.24;100.00;100633.06;1775951;79;20982;-84
2021/09/21 02:26:47;;;;;;;24.25;17.42;;;;;;;13.23;100.00;100634.02;1803178;78;21065;-82
2021/09/21 02:29:15;;;;;;;20.75;16.60;;;;;;;13.19;100.00;100632.62;1808355;79;21018;-81
2021/09/21 02:31:43;;;;;;;22.00;15.35;;;;;;;13.18;100.00;100624.42;1776198;78;21565;-82
2021/09/21 02:34:09;;;;;;;21.93;15.20;;;;;;;13.15;100.00;100631.70;1738814;82;21788;-85
2021/09/21 02:36:40;;;;;;;16.73;15.00;;;;;;;13.11;100.00;100632.45;1711825;82;21022;-81
2021/09/21 02:39:05;;;;;;;17.23;15.43;;;;;;;13.08;100.00;100627.50;1735164;81;21095;-85
2021/09/21 02:41:32;;;;;;;17.70;15.83;;;;;;;13.06;100.00;100628.91;1776069;79;21470;-84
2021/09/21 02:44:01;;;;;;;18.45;14.55;;;;;;;13.00;100.00;100628.14;1738995;82;21485;-86
2021/09/21 02:46:30;;;;;;;15.68;14.10;;;;;;;12.98;100.00;100626.63;1742589;82;21132;-85
2021/09/21 02:48:57;;;;;;;22.67;14.70;;;;;;;12.94;100.00;100622.95;1709447;82;21681;-86
2021/09/21 02:51:24;;;;;;;18.48;14.35;;;;;;;12.89;100.00;100623.83;1776111;79;21042;-86
2021/09/21 02:53:53;;;;;;;16.55;14.85;;;;;;;12.87;100.00;100621.82;1738978;82;20991;-90
2021/09/21 02:56:22;;;;;;;18.17;14.55;;;;;;;12.85;100.00;100626.38;1742963;82;21027;-85
2021/09/21 02:58:49;;;;;;;20.48;14.80;;;;;;;12.85;100.00;100625.52;1709671;82;21012;-82
2021/09/21 03:01:19;;;;;;;20.48;15.25;;;;;;;12.84;100.00;100619.48;1776046;79;21018;-88
2021/09/21 03:03:52;;;;;;;16.60;14.85;;;;;;;12.82;100.00;100625.31;1803040;79;21010;-85
2021/09/21 03:06:30;;;;;;;31.05;16.50;;;;;;;12.78;100.00;100625.20;1775061;79;20980;-84
2021/09/21 03:08:55;;;;;;;43.17;16.52;;;;;;;12.74;100.00;100623.33;1774932;79;21011;-86
2021/09/21 03:11:23;;;;;;;22.05;16.50;;;;;;;12.74;100.00;100631.66;1775799;79;21886;-87
2021/09/21 03:19:07;;;;;;;25.23;17.37;;;;;;;12.76;100.00;100626.65;1807883;79;21074;-89
2021/09/21 03:21:35;;;;;;;56.60;23.22;;;;;;;12.76;100.00;100623.22;1811781;78;21457;-83
2021/09/21 03:24:03;;;;;;;36.25;18.90;;;;;;;12.77;100.00;100620.47;1810142;77;21091;-84
2021/09/21 03:26:30;;;;;;;31.12;18.55;;;;;;;12.79;100.00;100625.56;1807640;78;21030;-88
2021/09/21 03:28:57;;;;;;;35.35;21.73;;;;;;;12.76;100.00;100620.61;1776620;79;21006;-83
2021/09/21 03:31:27;;;;;;;21.20;18.17;;;;;;;12.72;100.00;100621.81;1807632;79;21045;-88
2021/09/21 03:33:54;;;;;;;24.52;17.48;;;;;;;12.65;100.00;100621.52;1776696;79;21030;-85
2021/09/21 03:36:21;;;;;;;26.68;16.70;;;;;;;12.62;100.00;100623.07;1807757;78;21125;-81
2021/09/21 03:38:48;;;;;;;26.62;16.93;;;;;;;12.60;100.00;100624.52;1809006;79;21411;-84
2021/09/21 03:41:16;;;;;;;21.60;16.65;;;;;;;12.57;100.00;100626.56;1813102;79;21383;-83
2021/09/21 03:43:43;;;;;;;22.45;17.17;;;;;;;12.59;100.00;100629.84;1782346;79;20920;-87
2021/09/21 03:46:12;;;;;;;33.38;17.00;;;;;;;12.59;100.00;100626.77;1781666;77;20928;-84
2021/09/21 03:48:39;;;;;;;53.58;18.32;;;;;;;12.58;100.00;100628.19;1781465;79;21022;-80
2021/09/21 03:51:06;;;;;;;38.92;17.42;;;;;;;12.56;100.00;100629.63;1776018;79;21002;-81
2021/09/21 03:53:33;;;;;;;31.85;16.70;;;;;;;12.57;100.00;100631.29;1808152;78;20959;-86
2021/09/21 03:56:00;;;;;;;24.95;17.20;;;;;;;12.61;100.00;100635.78;1807799;79;21485;-87
2021/09/21 03:58:27;;;;;;;26.93;16.97;;;;;;;12.62;100.00;100636.95;1775305;79;21505;-82
2021/09/21 04:00:54;;;;;;;34.70;16.00;;;;;;;12.62;100.00;100633.03;1808310;78;21148;-87
2021/09/21 04:03:21;;;;;;;20.70;16.37;;;;;;;12.61;100.00;100634.02;1775907;79;20919;-84
2021/09/21 04:05:49;;;;;;;132.03;21.15;;;;;;;12.60;100.00;100634.97;1776094;79;21156;-84
2021/09/21 04:08:19;;;;;;;27.15;16.75;;;;;;;12.58;100.00;100630.34;1808228;78;21037;-84
2021/09/21 04:10:46;;;;;;;18.85;15.80;;;;;;;12.55;100.00;100638.42;1711642;82;21576;-83
2021/09/21 04:13:14;;;;;;;20.32;17.23;;;;;;;12.53;100.00;100627.30;1807627;78;21119;-85
2021/09/21 04:15:41;;;;;;;19.52;16.27;;;;;;;12.49;100.00;100621.95;1839089;78;22189;-86
2021/09/21 04:18:08;;;;;;;24.25;16.30;;;;;;;12.46;100.00;100619.13;1819337;78;21098;-86
2021/09/21 04:20:36;;;;;;;18.82;16.23;;;;;;;12.45;100.00;100621.39;1807506;77;21050;-83
2021/09/21 04:23:03;;;;;;;22.05;15.98;;;;;;;12.44;100.00;100624.95;1772367;81;21204;-80
2021/09/21 04:25:31;;;;;;;20.45;16.52;;;;;;;12.42;100.00;100617.71;1787818;80;21147;-83
2021/09/21 04:27:58;;;;;;;19.70;15.53;;;;;;;12.40;100.00;100617.50;1772195;80;21050;-84
2021/09/21 04:30:28;;;;;;;21.62;16.32;;;;;;;12.40;100.00;100617.50;1787487;80;20955;-83
2021/09/21 04:32:56;;;;;;;35.43;16.12;;;;;;;12.39;100.00;100618.45;1728843;81;21027;-87
2021/09/21 04:35:23;;;;;;;21.02;17.32;;;;;;;12.38;100.00;100614.20;1739106;81;21410;-86
2021/09/21 04:37:50;;;;;;;19.32;16.10;;;;;;;12.38;100.00;100613.71;1807816;78;21018;-86
2021/09/21 04:40:17;;;;;;;24.95;17.80;;;;;;;12.37;100.00;100613.85;1739137;81;20999;-83
2021/09/21 04:42:44;;;;;;;19.80;16.80;;;;;;;12.34;100.00;100608.38;1808006;78;21025;-85
2021/09/21 04:45:12;;;;;;;21.62;18.25;;;;;;;12.31;100.00;100606.86;1769112;80;20972;-87
2021/09/21 04:47:39;;;;;;;19.85;17.60;;;;;;;12.30;100.00;100606.99;1731742;82;21683;-83
2021/09/21 04:50:09;;;;;;;21.15;18.65;;;;;;;12.33;100.00;100604.59;1811112;78;23121;-83
2021/09/21 04:52:37;;;;;;;23.35;19.10;;;;;;;12.35;100.00;100599.59;1807405;79;21652;-83
2021/09/21 04:55:07;;;;;;;23.50;18.67;;;;;;;12.35;100.00;100594.86;1807348;78;21730;-87
2021/09/21 04:57:34;;;;;;;30.48;19.90;;;;;;;12.34;100.00;100596.63;1776163;79;21105;-81
2021/09/21 05:00:03;;;;;;;36.15;18.90;;;;;;;12.37;100.00;100604.22;1709501;82;21583;-84
2021/09/21 05:02:30;;;;;;;25.08;18.80;;;;;;;12.45;100.00;100597.88;1711685;82;22110;-83
2021/09/21 05:04:57;;;;;;;27.85;19.32;;;;;;;12.51;100.00;100599.16;1709517;82;21052;-85
2021/09/21 05:07:26;;;;;;;22.32;17.82;;;;;;;12.56;100.00;100597.47;1807572;78;21070;-81
2021/09/21 05:09:53;;;;;;;32.25;18.67;;;;;;;12.61;100.00;100603.97;1776323;79;20998;-82
2021/09/21 05:12:22;;;;;;;23.38;18.42;;;;;;;12.66;100.00;100600.94;1807559;78;20994;-81
2021/09/21 05:14:49;;;;;;;60.00;19.80;;;;;;;12.75;100.00;100604.58;1807902;78;21274;-82
2021/09/21 05:17:17;;;;;;;31.85;18.67;;;;;;;12.78;100.00;100603.84;1808628;78;21002;-83
2021/09/21 05:19:45;;;;;;;33.60;17.85;;;;;;;12.86;100.00;100603.67;1807529;78;21125;-84
2021/09/21 05:22:14;;;;;;;28.47;18.20;;;;;;;12.94;100.00;100611.68;1738962;82;21043;-81
2021/09/21 05:24:41;;;;;;;19.35;16.77;;;;;;;13.02;100.00;100607.94;1708280;82;21513;-84
2021/09/21 05:27:10;;;;;;;21.40;17.52;;;;;;;13.08;100.00;100607.89;1747185;80;21046;-82
2021/09/21 05:29:38;;;;;;;18.98;16.15;;;;;;;13.13;100.00;100606.20;1810704;78;21086;-82
2021/09/21 05:32:05;;;;;;;19.80;16.23;;;;;;;13.16;100.00;100609.83;1776274;79;21086;-85
2021/09/21 05:34:34;;;;;;;19.98;15.38;;;;;;;13.20;100.00;100605.52;1807509;79;20985;-82
2021/09/21 05:37:02;;;;;;;18.25;15.83;;;;;;;13.26;100.00;100610.20;1776083;79;21047;-80
2021/09/21 05:39:29;;;;;;;19.15;16.57;;;;;;;13.31;100.00;100607.20;1776068;79;21036;-84
2021/09/21 05:41:58;;;;;;;18.98;15.60;;;;;;;13.36;100.00;100610.26;1807547;79;21056;-84
2021/09/21 05:44:26;;;;;;;16.90;15.10;;;;;;;13.40;100.00;100603.81;1775876;79;21115;-84
2021/09/21 05:46:55;;;;;;;18.07;15.38;;;;;;;13.43;100.00;100605.83;1807684;79;21047;-87
2021/09/21 05:49:23;;;;;;;16.67;14.98;;;;;;;13.45;100.00;100601.30;1776759;79;21057;-88
2021/09/21 05:51:51;;;;;;;22.65;16.20;;;;;;;13.48;100.00;100598.39;1777085;79;21021;-83
2021/09/21 05:54:19;;;;;;;21.85;18.48;;;;;;;13.52;100.00;100597.98;1776748;79;21071;-84
2021/09/21 05:56:46;;;;;;;19.57;17.35;;;;;;;13.56;100.00;100596.77;1776798;79;21361;-85
2021/09/21 05:59:13;;;;;;;20.43;16.67;;;;;;;13.62;100.00;100587.53;1808312;78;21075;-84
2021/09/21 06:01:43;;;;;;;21.35;16.17;;;;;;;13.72;100.00;100592.80;1808342;79;21047;-83
2021/09/21 06:04:11;;;;;;;20.65;16.52;;;;;;;13.82;100.00;100590.17;1776346;79;21077;-83
2021/09/21 06:06:38;;;;;;;20.32;16.82;;;;;;;13.90;100.00;100581.65;1792337;78;20999;-84
2021/09/21 06:09:06;;;;;;;19.10;15.83;;;;;;;13.96;100.00;100590.25;1808493;78;21030;-84
2021/09/21 06:11:33;;;;;;;19.80;16.40;;;;;;;14.01;100.00;100594.58;1716024;81;21079;-83
2021/09/21 06:14:02;;;;;;;18.50;15.63;;;;;;;14.04;100.00;100593.01;1777234;79;21034;-86
2021/09/21 06:16:31;;;;;;;16.90;15.10;;;;;;;14.06;100.00;100591.05;1808135;79;20927;-87
2021/09/21 06:19:00;;;;;;;16.37;14.23;;;;;;;14.08;100.00;100595.67;1794739;78;20947;-84
2021/09/21 06:21:27;;;;;;;17.98;15.13;;;;;;;14.10;100.00;100601.61;1795618;78;21045;-83
2021/09/21 06:23:55;;;;;;;16.32;14.60;;;;;;;14.11;100.00;100596.72;1783895;79;21081;-89
2021/09/21 06:26:23;;;;;;;16.05;14.23;;;;;;;14.10;100.00;100598.98;1769963;78;21065;-81
2021/09/21 06:28:50;;;;;;;18.17;14.65;;;;;;;14.08;100.00;100603.53;1802121;78;21689;-81
2021/09/21 06:31:18;;;;;;;17.80;15.15;;;;;;;14.02;100.00;100600.17;1739048;80;21050;-89
2021/09/21 06:33:46;;;;;;;16.12;14.23;;;;;;;13.94;100.00;100602.64;1738943;81;21045;-84
2021/09/21 06:36:13;;;;;;;18.82;15.68;;;;;;;13.84;100.00;100606.58;1775934;79;21601;-87
2021/09/21 06:38:41;;;;;;;22.27;17.02;;;;;;;13.85;100.00;100604.31;1775897;79;21494;-84
2021/09/21 06:41:08;;;;;;;19.32;16.50;;;;;;;13.87;100.00;100602.36;1805768;78;21044;-87
2021/09/21 06:43:35;;;;;;;15.75;14.03;;;;;;;13.91;100.00;100600.29;1791972;77;21070;-85
2021/09/21 06:46:04;;;;;;;15.23;13.43;;;;;;;13.92;100.00;100604.56;1791409;79;21824;-83
2021/09/21 06:48:31;;;;;;;16.55;14.20;;;;;;;13.92;100.00;100604.10;1802709;79;21003;-82
2021/09/21 06:50:58;;;;;;;13.65;12.25;;;;;;;13.91;100.00;100605.52;1803594;79;21006;-84
2021/09/21 06:53:27;;;;;;;14.47;11.95;;;;;;;13.90;100.00;100601.28;1803701;79;21072;-86
2021/09/21 06:55:54;;;;;;;16.48;12.45;;;;;;;13.99;100.00;100592.11;1807877;78;21547;-80
2021/09/21 06:58:21;;;;;;;16.35;12.60;;;;;;;14.23;100.00;100593.94;1807664;78;21042;-83
2021/09/21 07:00:50;;;;;;;15.05;13.53;;;;;;;14.46;100.00;100587.41;1803123;79;21006;-89
2021/09/21 07:03:17;;;;;;;16.62;13.55;;;;;;;14.65;100.00;100587.88;1803107;79;21996;-89
2021/09/21 07:05:44;;;;;;;16.12;14.53;;;;;;;14.76;100.00;100593.45;1803011;79;21149;-87
2021/09/21 07:08:11;;;;;;;18.60;16.10;;;;;;;14.76;100.00;100588.67;1807795;79;21005;-83
2021/09/21 07:10:38;;;;;;;17.40;15.58;;;;;;;14.76;100.00;100583.44;1802967;79;21097;-87
2021/09/21 07:13:05;;;;;;;19.35;14.73;;;;;;;14.78;100.00;100590.68;1803047;79;21105;-84
2021/09/21 07:15:33;;;;;;;15.18;13.68;;;;;;;14.76;100.00;100588.67;1807810;79;21415;-83
2021/09/21 07:18:00;;;;;;;19.85;17.82;;;;;;;14.73;100.00;100590.30;1808281;79;21136;-85
2021/09/21 07:20:28;;;;;;;21.45;19.35;;;;;;;14.67;100.00;100587.75;1805515;78;21080;-84
2021/09/21 07:22:55;;;;;;;24.55;22.15;;;;;;;14.57;100.00;100594.78;1803419;78;21120;-82
2021/09/21 07:25:23;;;;;;;27.87;25.10;;;;;;;14.47;100.00;100605.28;1801779;78;21114;-84
2021/09/21 07:27:54;;;;;;;31.62;26.50;;;;;;;14.32;100.00;100599.65;1783230;79;20982;-89
2021/09/21 07:30:23;;;;;;;26.65;23.98;;;;;;;14.16;100.00;100602.36;1807642;79;21018;-85
2021/09/21 07:32:50;;;;;;;31.65;27.15;;;;;;;14.02;100.00;100613.25;1775971;79;21726;-82
2021/09/21 07:35:18;;;;;;;10.43;9.43;;;;;;;13.82;100.00;100622.39;1776394;79;21002;-85
2021/09/21 07:37:45;;;;;;;9.73;8.85;;;;;;;13.46;100.00;100628.61;1806180;77;21014;-85
2021/09/21 07:40:13;;;;;;;8.50;7.70;;;;;;;13.07;100.00;100627.15;1744393;81;20982;-88
2021/09/21 07:42:41;;;;;;;8.30;7.00;;;;;;;12.78;100.00;100621.29;1753585;80;21143;-83
2021/09/21 07:45:10;;;;;;;7.75;7.10;;;;;;;12.56;100.00;100632.24;1739113;81;21062;-87
2021/09/21 07:47:37;;;;;;;8.23;7.47;;;;;;;12.42;100.00;100629.95;1807908;77;21558;-88
2021/09/21 07:50:08;;;;;;;7.83;7.12;;;;;;;12.29;100.00;100627.52;1835278;78;20951;-85
2021/09/21 07:52:35;;;;;;;6.65;5.95;;;;;;;12.20;100.00;100627.81;1836576;77;21038;-84
2021/09/21 07:55:03;;;;;;;6.67;6.08;;;;;;;12.13;100.00;100632.70;1782654;78;21080;-81
2021/09/21 07:57:32;;;;;;;6.75;6.15;;;;;;;12.11;100.00;100632.48;1810192;77;21018;-87
2021/09/21 07:59:59;;;;;;;7.92;7.22;;;;;;;12.12;100.00;100630.22;1807709;79;21078;-82
2021/09/21 08:02:26;;;;;;;8.85;8.05;;;;;;;12.12;100.00;100630.22;1807667;79;21779;-82
2021/09/21 08:04:53;;;;;;;10.10;9.10;;;;;;;12.13;100.00;100630.58;1818533;78;21097;-86
2021/09/21 08:07:21;;;;;;;10.30;9.40;;;;;;;12.17;100.00;100627.23;1698985;82;21131;-89
2021/09/21 08:09:48;;;;;;;10.95;9.15;;;;;;;12.19;100.00;100636.59;1769364;81;21637;-84
2021/09/21 08:12:15;;;;;;;10.90;9.90;;;;;;;12.23;100.00;100627.55;1739085;81;20970;-83
2021/09/21 08:14:45;;;;;;;11.75;10.55;;;;;;;12.35;100.00;100627.50;1739579;81;21045;-84
2021/09/21 08:17:13;;;;;;;11.37;10.33;;;;;;;12.54;100.00;100621.09;1771985;79;21011;-81
2021/09/21 08:19:42;;;;;;;10.95;9.95;;;;;;;12.71;100.00;100616.23;1808620;79;20983;-82
2021/09/21 08:22:09;;;;;;;11.93;10.72;;;;;;;12.86;100.00;100612.32;1807225;78;21564;-82
2021/09/21 08:24:36;;;;;;;10.65;9.55;;;;;;;12.95;100.00;100612.03;1721938;82;21053;-84
2021/09/21 08:27:03;;;;;;;9.15;8.35;;;;;;;13.00;100.00;100606.41;1712689;82;21051;-82
2021/09/21 08:29:31;;;;;;;8.35;7.53;;;;;;;13.03;100.00;100612.67;1722546;80;21010;-83
2021/09/21 08:31:58;;;;;;;7.67;7.00;;;;;;;13.15;100.00;100612.94;1739006;81;21072;-84
2021/09/21 08:34:27;;;;;;;6.50;5.90;;;;;;;13.27;100.00;100616.28;1807818;78;21081;-86
2021/09/21 08:36:54;;;;;;;6.40;5.80;;;;;;;13.28;100.00;100613.17;1764526;80;21054;-86
2021/09/21 08:39:21;;;;;;;7.37;5.75;;;;;;;13.32;100.00;100615.89;1769360;80;20964;-86
2021/09/21 08:41:50;;;;;;;5.45;4.95;;;;;;;13.39;100.00;100610.00;1808373;78;21042;-85
2021/09/21 08:44:20;;;;;;;7.25;6.00;;;;;;;13.45;100.00;100613.06;1818234;77;21129;-87
2021/09/21 08:46:49;;;;;;;6.15;5.45;;;;;;;13.45;100.00;100610.45;1807434;79;21477;-87
2021/09/21 08:49:16;;;;;;;5.10;4.65;;;;;;;13.42;100.00;100608.90;1796584;78;21006;-87
2021/09/21 08:51:44;;;;;;;4.83;4.33;;;;;;;13.42;100.00;100608.90;1808005;78;21478;-87
2021/09/21 08:54:11;;;;;;;4.65;4.22;;;;;;;13.45;100.00;100608.64;1807871;78;21596;-83
2021/09/21 08:56:40;;;;;;;4.80;4.30;;;;;;;13.42;100.00;100607.59;1739034;81;22224;-84
2021/09/21 08:59:15;;;;;;;4.47;4.08;;;;;;;13.34;100.00;100611.36;1764268;81;21026;-84
2021/09/21 09:01:48;;;;;;;4.35;3.95;;;;;;;13.22;100.00;100611.45;1738748;80;28243;-84
2021/09/21 09:04:18;;;;;;;4.15;3.83;;;;;;;13.11;100.00;100618.06;1765401;81;21031;-84
2021/09/21 09:06:53;;;;;;;10.65;9.20;;;;;;;12.96;100.00;100616.31;1835597;78;20967;-86
2021/09/21 09:09:25;;;;;;;7.58;6.37;;;;;;;12.85;100.00;100617.69;1739062;81;21089;-85
2021/09/21 09:11:56;;;;;;;5.47;4.97;;;;;;;12.77;100.00;100618.35;1808697;78;20975;-86
2021/09/21 09:14:28;;;;;;;6.62;5.97;;;;;;;12.72;100.00;100616.59;1739020;81;21094;-85
2021/09/21 09:17:03;;;;;;;10.80;9.70;;;;;;;12.67;100.00;100620.08;1807774;78;20963;-87
2021/09/21 09:19:37;;;;;;;13.08;10.65;;;;;;;12.66;100.00;100614.00;1769218;80;21046;-85
2021/09/21 09:22:15;;;;;;;20.88;15.93;;;;;;;12.72;100.00;100615.28;1808033;77;21097;-81
2021/09/21 09:24:58;;;;;;;19.48;13.50;;;;;;;12.81;100.00;100622.84;1840394;78;21894;-81
2021/09/21 09:27:49;;;;;;;19.45;13.43;;;;;;;12.89;100.00;100620.41;1808088;78;21034;-89
2021/09/21 09:30:22;;;;;;;3.35;3.05;;;;;;;12.97;100.00;100623.20;1808050;78;21037;-83
2021/09/21 09:33:03;;;;;;;16.17;10.68;;;;;;;13.07;100.00;100629.77;1835327;77;21018;-86
2021/09/21 09:35:34;;;;;;;19.83;15.50;;;;;;;13.15;100.00;100624.70;1808403;78;20964;-87
2021/09/21 09:38:08;;;;;;;16.80;13.32;;;;;;;13.21;100.00;100625.97;1742359;81;21104;-80
2021/09/21 09:40:52;;;;;;;40.65;35.73;;;;;;;13.23;100.00;100622.72;1739972;81;21421;-86
2021/09/21 09:43:23;;;;;;;19.37;17.37;;;;;;;13.28;100.00;100625.78;1709305;82;21490;-83
2021/09/21 09:45:54;;;;;;;9.98;9.08;;;;;;;13.38;100.00;100624.50;1708298;82;21052;-86
2021/09/21 09:48:24;;;;;;;3.80;3.50;;;;;;;13.48;100.00;100626.70;1736980;81;21149;-81
2021/09/21 09:50:55;;;;;;;5.70;5.10;;;;;;;13.58;100.00;100626.71;1713215;82;21484;-83
2021/09/21 09:53:27;;;;;;;3.55;3.25;;;;;;;13.69;100.00;100620.06;1735607;81;21037;-81
2021/09/21 09:55:58;;;;;;;6.25;5.65;;;;;;;13.79;100.00;100624.45;1739158;80;21101;-79
2021/09/21 09:58:26;;;;;;;3.52;3.22;;;;;;;13.88;100.00;100627.57;1737335;81;21128;-84
2021/09/21 10:00:54;;;;;;;6.65;5.92;;;;;;;13.91;100.00;100625.16;1808089;78;21152;-90
2021/09/21 10:03:22;;;;;;;3.92;3.62;;;;;;;13.88;100.00;100631.50;1789552;79;20971;-84
2021/09/21 10:05:51;;;;;;;3.37;3.08;;;;;;;13.83;100.00;100625.86;1737019;79;21111;-84
2021/09/21 10:08:20;;;;;;;3.80;3.47;;;;;;;13.74;100.00;100628.78;1799694;78;21513;-86
2021/09/21 10:10:49;;;;;;;3.20;2.90;;;;;;;13.53;100.00;100630.22;1828783;77;21651;-80
2021/09/21 10:13:19;;;;;;;3.52;3.22;;;;;;;13.33;100.00;100628.00;1812674;78;21529;-80
2021/09/21 10:15:50;;;;;;;3.62;3.33;;;;;;;13.16;100.00;100635.98;1807668;79;21101;-85
2021/09/21 10:18:21;;;;;;;4.33;3.87;;;;;;;13.00;100.00;100639.91;1792661;78;21583;-84
2021/09/21 10:21:00;;;;;;;4.05;3.75;;;;;;;12.86;100.00;100654.13;1807525;78;20994;-83
2021/09/21 10:23:34;;;;;;;3.12;2.83;;;;;;;12.61;100.00;100657.52;1774800;79;21555;-80
2021/09/21 10:26:16;;;;;;;3.40;3.10;;;;;;;12.31;100.00;100661.69;1776211;79;21018;-84
2021/09/21 10:28:50;;;;;;;3.67;3.27;;;;;;;12.05;100.00;100663.81;1785437;78;20998;-82
2021/09/21 10:31:21;;;;;;;5.22;4.72;;;;;;;11.88;100.00;100665.60;1824341;77;21009;-86
2021/09/21 10:33:49;;;;;;;4.03;3.67;;;;;;;11.78;100.00;100672.03;1807256;79;21049;-83
2021/09/21 10:36:32;;;;;;;3.70;3.40;;;;;;;11.68;100.00;100673.25;1751052;79;20998;-82
2021/09/21 10:39:07;;;;;;;4.55;4.12;;;;;;;11.58;100.00;100674.42;1775956;79;21894;-84
2021/09/21 10:41:48;;;;;;;4.40;4.00;;;;;;;11.50;100.00;100678.11;1776252;78;21050;-86
2021/09/21 10:44:16;;;;;;;5.22;4.20;;;;;;;11.47;100.00;100689.61;1737820;82;21019;-84
2021/09/21 10:46:56;;;;;;;4.78;4.37;;;;;;;11.36;100.00;100680.02;1738985;82;20949;-82
2021/09/21 10:49:37;;;;;;;5.83;4.80;;;;;;;11.32;100.00;100684.28;1752264;81;21010;-82
2021/09/21 10:52:10;;;;;;;6.62;6.03;;;;;;;11.30;100.00;100684.87;1764728;80;20931;-83
2021/09/21 10:54:43;;;;;;;7.05;6.10;;;;;;;11.29;100.00;100689.27;1712862;82;21069;-84
2021/09/21 10:57:17;;;;;;;5.72;5.17;;;;;;;11.28;100.00;100689.39;1738867;82;21022;-82
2021/09/21 11:00:00;;;;;;;5.40;4.90;;;;;;;11.31;100.00;100691.29;1729802;82;21019;-80
2021/09/21 11:02:44;;;;;;;6.97;6.30;;;;;;;11.38;100.00;100689.50;1738611;81;20995;-80
2021/09/21 11:05:15;;;;;;;;;;;;;;;11.47;100.00;100696.12;1711672;82;21048;-80
2021/09/21 11:07:51;;;;;;;5.80;5.30;;;;;;;11.49;100.00;100696.03;1738762;82;20136;-80
2021/09/21 11:10:20;;;;;;;5.10;4.60;;;;;;;11.47;100.00;100699.23;1776025;79;20954;-80
2021/09/21 11:12:49;;;;;;;5.65;5.15;;;;;;;11.40;100.00;100694.13;1776087;79;21529;-80
2021/09/21 11:15:25;;;;;;;5.30;4.90;;;;;;;11.31;100.00;100696.50;1738895;82;21006;-81
2021/09/21 11:18:17;;;;;;;6.33;5.72;;;;;;;11.23;100.00;100701.48;1711531;81;21072;-81
2021/09/21 11:21:01;;;;;;;6.45;5.85;;;;;;;11.16;100.00;100702.89;1813016;77;21500;-81
2021/09/21 11:23:32;;;;;;;6.37;5.78;;;;;;;11.12;100.00;100703.60;1821186;78;21019;-81
2021/09/21 11:26:06;;;;;;;6.08;5.58;;;;;;;11.14;100.00;100706.90;1808581;77;20987;-81